createdAt,value
2022-11-27T00:04:34.978Z,51.50
2022-11-27T00:09:40.437Z,51.50
2022-11-27T00:14:43.849Z,51.40
2022-11-27T00:19:47.161Z,51.40
2022-11-27T00:24:51.801Z,51.40
2022-11-27T00:29:55.028Z,51.40
2022-11-27T00:34:58.261Z,51.40
2022-11-27T00:40:03.247Z,51.40
2022-11-27T00:45:07.073Z,51.40
2022-11-27T00:50:11.073Z,51.30
2022-11-27T00:55:15.856Z,51.40
2022-11-27T01:00:20.226Z,51.40
2022-11-27T01:05:23.482Z,51.50
2022-11-27T01:10:28.116Z,51.40
2022-11-27T01:15:31.369Z,51.50
2022-11-27T01:20:34.779Z,51.50
2022-11-27T01:25:39.846Z,51.50
2022-11-27T01:30:43.157Z,51.50
2022-11-27T01:35:55.418Z,51.50
2022-11-27T01:41:01.593Z,51.50
2022-11-27T01:46:05.570Z,51.50
2022-11-27T01:51:08.940Z,51.50
2022-11-27T01:56:13.789Z,51.50
2022-11-27T02:01:17.275Z,51.50
2022-11-27T02:06:20.574Z,51.50
2022-11-27T02:11:32.504Z,51.50
2022-11-27T02:16:44.199Z,51.50
2022-11-27T02:21:53.089Z,51.40
2022-11-27T02:27:22.935Z,51.40
2022-11-27T02:32:33.722Z,51.30
2022-11-27T02:37:44.467Z,51.40
2022-11-27T02:42:55.614Z,51.40
2022-11-27T02:48:01.387Z,51.30
2022-11-27T02:53:08.983Z,51.30
2022-11-27T02:58:17.225Z,51.40
2022-11-27T03:03:26.266Z,51.30
2022-11-27T03:08:34.237Z,51.30
2022-11-27T03:13:40.619Z,51.30
2022-11-27T03:18:56.476Z,51.20
2022-11-27T03:24:00.224Z,51.20
2022-11-27T03:29:06.150Z,51.20
2022-11-27T03:34:11.411Z,51.30
2022-11-27T03:39:14.960Z,51.30
2022-11-27T03:44:28.314Z,51.30
2022-11-27T03:49:43.708Z,51.30
2022-11-27T03:54:58.949Z,51.30
2022-11-27T04:00:06.138Z,51.30
2022-11-27T04:05:12.078Z,51.30
2022-11-27T04:10:15.930Z,51.20
2022-11-27T04:15:19.262Z,51.20
2022-11-27T04:20:24.063Z,51.20
2022-11-27T04:25:28.393Z,51.20
2022-11-27T04:30:31.668Z,51.10
2022-11-27T04:35:36.399Z,51.20
2022-11-27T04:40:39.691Z,51.10
2022-11-27T04:45:44.413Z,51.20
2022-11-27T04:50:49.146Z,51.20
2022-11-27T04:55:52.868Z,51.20
2022-11-27T05:00:56.309Z,51.30
2022-11-27T05:06:01.442Z,51.40
2022-11-27T05:11:07.100Z,51.40
2022-11-27T05:16:11.030Z,51.40
2022-11-27T05:21:15.694Z,51.50
2022-11-27T05:26:19.045Z,51.50
2022-11-27T05:31:22.275Z,51.40
2022-11-27T05:36:27.313Z,51.40
2022-11-27T05:41:30.706Z,51.40
2022-11-27T05:46:34.471Z,51.40
2022-11-27T05:51:39.072Z,51.50
2022-11-27T05:56:42.314Z,51.50
2022-11-27T06:01:45.621Z,51.60
2022-11-27T06:06:50.366Z,51.60
2022-11-27T06:11:53.675Z,51.70
2022-11-27T06:16:57.084Z,51.70
2022-11-27T06:22:01.786Z,51.70
2022-11-27T06:27:05.260Z,51.80
2022-11-27T06:32:08.700Z,51.80
2022-11-27T06:37:13.778Z,51.80
2022-11-27T06:42:17.242Z,51.30
2022-11-27T06:47:20.509Z,52.00
2022-11-27T06:52:25.210Z,52.10
2022-11-27T06:57:28.475Z,52.20
2022-11-27T07:02:31.864Z,52.20
2022-11-27T07:07:39.788Z,52.40
2022-11-27T07:12:46.897Z,52.50
2022-11-27T07:17:50.414Z,52.50
2022-11-27T07:22:55.291Z,52.60
2022-11-27T07:27:58.561Z,52.60
2022-11-27T07:33:01.846Z,52.60
2022-11-27T07:38:06.563Z,52.60
2022-11-27T07:43:09.846Z,52.70
2022-11-27T07:48:13.128Z,52.60
2022-11-27T07:53:18.013Z,52.70
2022-11-27T07:58:21.272Z,52.70
2022-11-27T08:03:24.757Z,52.70
2022-11-27T08:08:29.599Z,52.70
2022-11-27T08:13:32.911Z,52.70
2022-11-27T08:18:36.180Z,52.80
2022-11-27T08:23:41.060Z,52.70
2022-11-27T08:28:44.678Z,52.70
2022-11-27T08:33:48.325Z,52.70
2022-11-27T08:38:52.969Z,52.60
2022-11-27T08:43:56.317Z,52.50
2022-11-27T08:49:00.924Z,52.40
2022-11-27T08:54:05.999Z,52.40
2022-11-27T08:59:09.351Z,52.30
2022-11-27T09:04:12.858Z,52.40
2022-11-27T09:09:17.597Z,52.40
2022-11-27T09:14:20.856Z,52.40
2022-11-27T09:19:24.678Z,52.40
2022-11-27T09:24:29.352Z,52.50
2022-11-27T09:29:34.739Z,52.40
2022-11-27T09:34:38.506Z,52.40
2022-11-27T09:39:43.624Z,52.40
2022-11-27T09:44:53.558Z,52.30
2022-11-27T09:50:01.655Z,52.30
2022-11-27T09:55:16.696Z,52.20
2022-11-27T10:00:22.156Z,52.10
2022-11-27T10:05:27.672Z,52.10
2022-11-27T10:10:40.854Z,52.10
2022-11-27T10:15:52.463Z,51.90
2022-11-27T10:20:58.953Z,51.90
2022-11-27T10:26:08.851Z,51.90
2022-11-27T10:31:15.995Z,51.70
2022-11-27T10:36:28.361Z,51.80
2022-11-27T10:41:49.395Z,51.60
2022-11-27T10:46:58.457Z,51.50
2022-11-27T10:52:02.692Z,51.50
2022-11-27T10:57:22.417Z,51.40
2022-11-27T11:02:32.157Z,50.50
2022-11-27T11:07:35.622Z,50.50
2022-11-27T11:12:40.273Z,50.80
2022-11-27T11:17:43.545Z,50.40
2022-11-27T11:22:48.466Z,50.50
2022-11-27T11:27:54.273Z,50.30
2022-11-27T11:33:02.832Z,50.00
2022-11-27T11:38:08.342Z,49.80
2022-11-27T11:43:26.539Z,49.80
2022-11-27T11:48:30.231Z,48.90
2022-11-27T11:53:37.253Z,49.50
2022-11-27T11:58:53.512Z,49.20
2022-11-27T12:04:09.489Z,48.50
2022-11-27T12:09:25.756Z,48.30
2022-11-27T12:14:43.130Z,48.50
2022-11-27T12:20:18.801Z,48.20
2022-11-27T12:25:29.797Z,47.90
2022-11-27T12:30:45.678Z,48.30
2022-11-27T12:35:59.206Z,48.10
2022-11-27T12:41:24.084Z,48.20
2022-11-27T12:46:37.596Z,47.80
2022-11-27T12:51:47.672Z,48.00
2022-11-27T12:56:58.035Z,48.10
2022-11-27T13:02:07.192Z,48.20
2022-11-27T13:07:18.503Z,48.10
2022-11-27T13:12:28.299Z,48.00
2022-11-27T13:17:39.046Z,48.00
2022-11-27T13:22:44.141Z,47.80
2022-11-27T13:27:50.644Z,48.00
2022-11-27T13:33:01.955Z,47.90
2022-11-27T13:38:10.146Z,47.80
2022-11-27T13:43:23.930Z,47.70
2022-11-27T13:48:33.993Z,47.60
2022-11-27T13:53:39.485Z,47.40
2022-11-27T13:58:44.096Z,47.80
2022-11-27T14:03:50.051Z,47.70
2022-11-27T14:08:59.218Z,47.50
2022-11-27T14:14:11.806Z,47.20
2022-11-27T14:19:35.964Z,47.50
2022-11-27T14:24:44.542Z,46.70
2022-11-27T14:29:48.780Z,47.40
2022-11-27T14:34:53.992Z,47.40
2022-11-27T14:39:57.569Z,47.20
2022-11-27T14:45:07.535Z,47.30
2022-11-27T14:50:15.682Z,46.90
2022-11-27T14:55:20.771Z,47.00
2022-11-27T15:00:27.234Z,47.10
2022-11-27T15:05:40.119Z,47.10
2022-11-27T15:10:43.765Z,46.50
2022-11-27T15:15:57.937Z,47.10
2022-11-27T15:21:05.249Z,46.50
2022-11-27T15:26:15.862Z,46.90
2022-11-27T15:31:26.914Z,46.90
2022-11-27T15:36:40.418Z,46.60
2022-11-27T15:41:53.132Z,46.50
2022-11-27T15:46:58.901Z,46.50
2022-11-27T15:52:05.113Z,47.00
2022-11-27T15:57:08.936Z,46.90
2022-11-27T16:02:17.786Z,47.00
2022-11-27T16:07:23.482Z,47.00
2022-11-27T16:12:27.816Z,46.90
2022-11-27T16:17:31.876Z,47.10
2022-11-27T16:22:38.028Z,47.10
2022-11-27T16:27:43.571Z,47.10
2022-11-27T16:32:48.694Z,47.20
2022-11-27T16:37:56.223Z,47.20
2022-11-27T16:43:03.297Z,47.20
2022-11-27T16:48:08.142Z,47.30
2022-11-27T16:53:14.107Z,47.40
2022-11-27T16:58:18.884Z,47.40
2022-11-27T17:03:23.675Z,47.50
2022-11-27T17:08:29.857Z,47.60
2022-11-27T17:13:34.476Z,47.50
2022-11-27T17:18:41.466Z,47.90
2022-11-27T17:23:47.863Z,48.20
2022-11-27T17:28:56.164Z,48.30
2022-11-27T17:34:01.772Z,48.30
2022-11-27T17:39:08.341Z,48.40
2022-11-27T17:44:21.977Z,48.20
2022-11-27T17:49:26.966Z,48.10
2022-11-27T17:54:35.535Z,48.00
2022-11-27T17:59:43.184Z,47.80
2022-11-27T18:04:48.796Z,47.80
2022-11-27T18:09:59.741Z,47.70
2022-11-27T18:15:06.378Z,47.60
2022-11-27T18:20:11.945Z,48.10
2022-11-27T18:25:18.054Z,47.90
2022-11-27T18:30:24.223Z,47.80
2022-11-27T18:35:29.691Z,47.90
2022-11-27T18:40:38.302Z,47.80
2022-11-27T18:45:43.935Z,47.80
2022-11-27T18:50:50.535Z,48.00
2022-11-27T18:56:05.450Z,48.00
2022-11-27T19:01:13.895Z,48.10
2022-11-27T19:06:19.927Z,48.20
2022-11-27T19:11:29.735Z,48.30
2022-11-27T19:16:36.933Z,48.30
2022-11-27T19:21:46.725Z,48.50
2022-11-27T19:26:58.446Z,48.60
2022-11-27T19:32:03.576Z,48.80
2022-11-27T19:37:10.580Z,48.80
2022-11-27T19:42:21.622Z,49.10
2022-11-27T19:47:32.396Z,49.20
2022-11-27T19:52:38.809Z,49.40
2022-11-27T19:57:46.309Z,49.30
2022-11-27T20:02:53.746Z,49.60
2022-11-27T20:08:00.210Z,49.60
2022-11-27T20:13:10.832Z,49.70
2022-11-27T20:18:17.120Z,50.00
2022-11-27T20:23:23.138Z,49.90
2022-11-27T20:28:30.775Z,49.90
2022-11-27T20:33:37.026Z,50.10
2022-11-27T20:38:41.958Z,50.10
2022-11-27T20:43:50.790Z,50.20
2022-11-27T20:48:57.964Z,50.40
2022-11-27T20:54:04.993Z,50.40
2022-11-27T20:59:12.626Z,50.50
2022-11-27T21:04:22.205Z,51.30
2022-11-27T21:09:27.016Z,50.70
2022-11-27T21:14:32.129Z,50.60
2022-11-27T21:19:36.745Z,50.70
2022-11-27T21:24:41.240Z,50.80
2022-11-27T21:29:47.254Z,50.70
2022-11-27T21:34:52.711Z,50.90
2022-11-27T21:39:56.812Z,50.90
2022-11-27T21:45:02.975Z,51.00
2022-11-27T21:50:07.754Z,51.10
2022-11-27T21:55:15.068Z,51.00
2022-11-27T22:00:21.095Z,51.10
2022-11-27T22:05:24.538Z,51.30
2022-11-27T22:10:27.815Z,51.20
2022-11-27T22:15:32.914Z,51.20
2022-11-27T22:20:36.835Z,51.50
2022-11-27T22:25:40.193Z,51.30
2022-11-27T22:30:45.199Z,51.40
2022-11-27T22:35:48.683Z,51.50
2022-11-27T22:40:52.191Z,51.40
2022-11-27T22:45:57.109Z,51.50
2022-11-27T22:51:00.520Z,51.50
2022-11-27T22:56:08.419Z,51.50
2022-11-27T23:01:17.402Z,51.70
2022-11-27T23:06:23.069Z,51.70
2022-11-27T23:11:28.543Z,51.60
2022-11-27T23:16:34.806Z,51.60
2022-11-27T23:21:38.989Z,51.70
2022-11-27T23:26:42.723Z,51.70
2022-11-27T23:31:47.314Z,51.70
2022-11-27T23:36:50.789Z,51.80
2022-11-27T23:41:54.209Z,51.80
2022-11-27T23:46:58.841Z,51.80
2022-11-27T23:52:02.330Z,51.90
2022-11-27T23:57:05.768Z,51.80
